createdAt,value
2019-05-12T03:03:06.679Z,10.60
2019-05-12T03:05:39.102Z,14.20
2019-05-12T03:08:10.235Z,13.93
2019-05-12T03:10:44.902Z,12.58
2019-05-12T03:13:15.820Z,9.25
2019-05-12T03:15:46.835Z,8.83
2019-05-12T03:18:17.952Z,9.88
2019-05-12T03:20:49.002Z,8.00
2019-05-12T03:23:20.189Z,9.85
2019-05-12T03:25:54.447Z,11.55
2019-05-12T03:28:25.420Z,12.25
2019-05-12T03:30:58.567Z,18.82
2019-05-12T03:33:36.002Z,10.35
2019-05-12T03:36:08.383Z,9.75
2019-05-12T03:38:36.211Z,17.05
2019-05-12T03:41:07.714Z,16.80
2019-05-12T03:43:38.922Z,16.32
2019-05-12T03:46:10.012Z,16.57
2019-05-12T03:48:41.070Z,17.27
2019-05-12T03:51:15.314Z,21.62
2019-05-12T03:53:47.423Z,24.70
2019-05-12T03:56:18.619Z,26.42
2019-05-12T03:58:49.822Z,25.12
2019-05-12T04:01:20.880Z,19.30
2019-05-12T04:03:54.164Z,17.55
2019-05-12T04:06:25.061Z,17.12
2019-05-12T04:08:59.942Z,14.30
2019-05-12T04:11:29.072Z,18.00
2019-05-12T04:14:00.307Z,17.60
2019-05-12T04:16:31.416Z,15.30
2019-05-12T04:19:05.395Z,17.80
2019-05-12T04:21:35.871Z,17.92
2019-05-12T04:24:07.183Z,17.80
2019-05-12T04:26:38.303Z,23.10
2019-05-12T04:29:09.528Z,23.10
2019-05-12T04:31:40.729Z,24.87
2019-05-12T04:34:15.715Z,21.70
2019-05-12T04:36:45.207Z,18.90
2019-05-12T04:39:16.799Z,29.23
2019-05-12T04:41:47.921Z,53.50
2019-05-12T04:44:19.053Z,58.83
2019-05-12T04:46:50.188Z,48.00
2019-05-12T04:49:45.148Z,41.05
2019-05-12T04:52:17.567Z,43.20
2019-05-12T04:54:48.902Z,39.95
2019-05-12T04:57:21.146Z,41.23
2019-05-12T04:59:54.338Z,38.95
2019-05-12T05:02:25.830Z,33.88
2019-05-12T05:04:58.516Z,40.50
2019-05-12T05:07:29.769Z,59.25
2019-05-12T05:10:04.471Z,51.92
2019-05-12T05:12:34.557Z,60.20
2019-05-12T05:15:07.746Z,52.48
2019-05-12T05:17:38.830Z,31.80
2019-05-12T05:20:10.070Z,26.35
2019-05-12T05:22:43.781Z,43.35
2019-05-12T05:25:14.543Z,46.35
2019-05-12T05:27:45.842Z,44.27
2019-05-12T05:30:17.080Z,20.55
2019-05-12T05:32:48.383Z,42.20
2019-05-12T05:35:19.814Z,58.87
2019-05-12T05:37:51.155Z,56.68
2019-05-12T05:40:28.485Z,55.78
2019-05-12T05:42:55.201Z,42.20
2019-05-12T05:45:26.657Z,35.78
2019-05-12T05:47:59.506Z,30.50
2019-05-12T05:50:30.602Z,33.33
2019-05-12T05:53:03.834Z,21.42
2019-05-12T05:55:34.729Z,28.75
2019-05-12T05:58:10.371Z,18.45
2019-05-12T06:00:39.578Z,14.35
2019-05-12T06:03:22.245Z,12.40
2019-05-12T06:05:45.329Z,14.10
2019-05-12T06:08:20.833Z,9.78
2019-05-12T06:10:50.961Z,9.25
2019-05-12T06:13:30.274Z,10.65
2019-05-12T06:15:54.983Z,11.57
2019-05-12T06:18:28.864Z,10.25
2019-05-12T06:20:59.030Z,11.28
2019-05-12T06:23:34.960Z,10.63
2019-05-12T06:26:04.466Z,10.08
2019-05-12T06:28:41.035Z,10.80
2019-05-12T06:31:09.789Z,10.10
2019-05-12T06:33:40.965Z,15.55
2019-05-12T06:36:14.128Z,11.15
2019-05-12T06:38:45.076Z,20.52
2019-05-12T06:41:20.816Z,12.88
2019-05-12T06:43:49.114Z,19.77
2019-05-12T06:46:22.987Z,30.30
2019-05-12T06:48:54.422Z,33.65
2019-05-12T06:51:25.999Z,17.87
2019-05-12T06:54:00.837Z,31.00
2019-05-12T06:56:34.042Z,25.90
2019-05-12T06:59:09.764Z,19.17
2019-05-12T07:01:37.854Z,25.72
2019-05-12T07:04:10.185Z,29.90
2019-05-12T07:06:43.940Z,26.12
2019-05-12T07:09:18.568Z,24.02
2019-05-12T07:11:53.478Z,16.50
2019-05-12T07:14:22.812Z,24.85
2019-05-12T07:17:01.539Z,24.45
2019-05-12T07:19:29.762Z,20.68
2019-05-12T07:22:03.416Z,13.78
2019-05-12T07:24:34.212Z,13.68
2019-05-12T07:27:09.099Z,13.08
2019-05-12T07:29:50.579Z,16.85
2019-05-12T07:32:24.567Z,15.63
2019-05-12T07:34:54.673Z,10.30
2019-05-12T07:37:25.740Z,19.10
2019-05-12T07:39:56.853Z,22.25
2019-05-12T07:42:31.572Z,21.97
2019-05-12T07:45:00.878Z,24.05
2019-05-12T07:47:33.101Z,19.60
2019-05-12T07:50:09.729Z,16.62
2019-05-12T07:52:38.198Z,11.90
2019-05-12T07:55:09.323Z,23.15
2019-05-12T07:57:52.027Z,18.37
2019-05-12T08:00:21.242Z,14.13
2019-05-12T08:02:46.386Z,12.65
2019-05-12T08:05:20.194Z,12.93
2019-05-12T08:07:50.600Z,17.32
2019-05-12T08:10:23.453Z,12.43
2019-05-12T08:12:59.333Z,13.03
2019-05-12T08:15:27.694Z,15.03
2019-05-12T08:17:59.726Z,12.28
2019-05-12T08:20:31.058Z,17.42
2019-05-12T08:23:07.879Z,17.57
2019-05-12T08:25:36.154Z,17.12
2019-05-12T08:28:15.473Z,15.10
2019-05-12T08:30:45.380Z,18.95
2019-05-12T08:33:14.674Z,81.20
2019-05-12T08:35:46.054Z,25.05
2019-05-12T08:38:17.235Z,19.32
2019-05-12T08:40:50.878Z,19.98
2019-05-12T08:43:23.861Z,24.55
2019-05-12T08:45:54.123Z,26.27
2019-05-12T08:48:25.356Z,25.62
2019-05-12T08:50:56.591Z,24.63
2019-05-12T08:53:27.879Z,22.00
2019-05-12T08:55:59.166Z,22.02
2019-05-12T08:58:39.202Z,20.20
2019-05-12T09:01:04.460Z,22.02
2019-05-12T09:03:35.729Z,20.43
2019-05-12T09:06:09.139Z,24.57
2019-05-12T09:08:45.222Z,21.73
2019-05-12T09:11:13.886Z,19.30
2019-05-12T09:13:45.288Z,18.87
2019-05-12T09:16:16.520Z,19.50
2019-05-12T09:18:47.655Z,19.62
2019-05-12T09:21:23.746Z,21.12
2019-05-12T09:23:53.981Z,21.30
2019-05-12T09:26:28.268Z,21.42
2019-05-12T09:28:57.547Z,22.80
2019-05-12T09:31:29.683Z,22.05
2019-05-12T09:34:05.933Z,21.40
2019-05-12T09:36:34.113Z,24.18
2019-05-12T09:39:07.466Z,19.70
2019-05-12T09:41:42.362Z,20.32
2019-05-12T09:44:13.391Z,29.52
2019-05-12T09:46:44.732Z,19.90
2019-05-12T09:49:15.867Z,21.33
2019-05-12T09:51:47.010Z,21.52
2019-05-12T09:54:18.303Z,21.02
2019-05-12T09:56:49.925Z,23.10
2019-05-12T09:59:23.674Z,23.83
2019-05-12T10:01:55.326Z,24.70
2019-05-12T10:04:26.621Z,25.27
2019-05-12T10:07:10.368Z,25.57
2019-05-12T10:09:43.929Z,25.65
2019-05-12T10:12:14.443Z,26.50
2019-05-12T10:14:47.141Z,24.43
2019-05-12T10:17:20.447Z,22.22
2019-05-12T10:19:54.183Z,23.18
2019-05-12T10:22:29.991Z,28.73
2019-05-12T10:24:58.908Z,22.67
2019-05-12T10:27:34.073Z,22.90
2019-05-12T10:30:11.842Z,131.67
2019-05-12T10:32:35.816Z,40.48
2019-05-12T10:35:12.250Z,38.65
2019-05-12T10:37:43.260Z,23.27
2019-05-12T10:40:14.014Z,29.72
2019-05-12T10:42:49.363Z,28.67
2019-05-12T10:45:20.680Z,28.60
2019-05-12T10:47:52.072Z,39.03
2019-05-12T10:50:23.501Z,39.27
2019-05-12T10:52:54.734Z,34.78
2019-05-12T10:55:25.827Z,46.08
2019-05-12T10:58:01.988Z,32.28
2019-05-12T11:00:30.014Z,48.40
2019-05-12T11:03:05.077Z,35.05
2019-05-12T11:05:34.448Z,42.73
2019-05-12T11:08:10.835Z,87.80
2019-05-12T11:10:57.537Z,87.15
2019-05-12T11:13:25.235Z,67.37
2019-05-12T11:16:08.837Z,57.55
2019-05-12T11:18:39.973Z,68.20
2019-05-12T11:21:11.177Z,71.67
2019-05-12T11:23:43.647Z,58.55
2019-05-12T11:26:14.882Z,50.65
2019-05-12T11:28:46.144Z,55.83
2019-05-12T11:31:17.329Z,67.10
2019-05-12T11:33:48.532Z,39.50
2019-05-12T11:36:19.650Z,26.95
2019-05-12T11:38:51.407Z,22.07
2019-05-12T11:41:28.248Z,22.50
2019-05-12T11:43:56.419Z,38.50
2019-05-12T11:46:39.721Z,42.15
2019-05-12T11:49:10.795Z,31.75
2019-05-12T11:51:41.845Z,22.50
2019-05-12T11:54:13.634Z,21.30
2019-05-12T11:56:46.494Z,28.30
2019-05-12T11:59:17.776Z,45.58
2019-05-12T12:01:51.513Z,30.90
2019-05-12T12:04:23.937Z,40.43
2019-05-12T12:06:55.091Z,26.85
2019-05-12T12:09:26.297Z,23.35
2019-05-12T12:12:03.221Z,44.75
2019-05-12T12:14:31.783Z,29.18
2019-05-12T12:17:03.106Z,24.65
2019-05-12T12:19:43.741Z,38.05
2019-05-12T12:22:08.087Z,39.65
2019-05-12T12:24:39.223Z,47.75
2019-05-12T12:27:10.468Z,41.35
2019-05-12T12:29:43.715Z,38.48
2019-05-12T12:32:18.552Z,55.38
2019-05-12T12:34:47.232Z,27.15
2019-05-12T12:37:24.101Z,31.42
2019-05-12T12:39:53.595Z,86.37
2019-05-12T12:42:24.854Z,36.68
2019-05-12T12:44:58.752Z,29.63
2019-05-12T12:47:28.978Z,28.27
2019-05-12T12:50:00.119Z,35.00
2019-05-12T12:52:46.897Z,29.98
2019-05-12T12:55:14.032Z,34.45
2019-05-12T12:57:49.248Z,25.17
2019-05-12T13:00:28.801Z,26.62
2019-05-12T13:02:50.760Z,26.82
2019-05-12T13:05:23.899Z,34.58
2019-05-12T13:07:54.655Z,36.73
2019-05-12T13:10:25.793Z,22.80
2019-05-12T13:13:01.018Z,22.77
2019-05-12T13:15:29.797Z,20.68
2019-05-12T13:18:00.986Z,18.75
2019-05-12T13:20:34.383Z,21.40
2019-05-12T13:23:05.685Z,25.45
2019-05-12T13:25:38.958Z,19.30
2019-05-12T13:28:18.476Z,24.40
2019-05-12T13:30:47.164Z,22.95
2019-05-12T13:33:18.271Z,18.37
2019-05-12T13:35:50.115Z,29.82
2019-05-12T13:38:23.807Z,25.17
2019-05-12T13:40:55.201Z,23.05
2019-05-12T13:43:30.091Z,24.90
2019-05-12T13:46:01.313Z,21.23
2019-05-12T13:48:32.536Z,18.92
2019-05-12T13:51:10.139Z,19.25
2019-05-12T13:53:40.458Z,20.57
2019-05-12T13:56:09.453Z,26.35
2019-05-12T13:58:43.652Z,29.70
2019-05-12T14:01:19.859Z,25.68
2019-05-12T14:03:50.700Z,33.18
2019-05-12T14:06:23.210Z,23.38
2019-05-12T14:08:53.812Z,20.62
2019-05-12T14:11:25.003Z,19.27
2019-05-12T14:13:56.201Z,16.73
2019-05-12T14:16:28.578Z,20.43
2019-05-12T14:19:00.555Z,20.77
2019-05-12T14:21:33.159Z,14.93
2019-05-12T14:24:04.642Z,15.05
2019-05-12T14:26:39.379Z,13.40
2019-05-12T14:29:08.785Z,12.82
2019-05-12T14:31:45.327Z,12.07
2019-05-12T14:34:18.787Z,13.03
2019-05-12T14:36:46.619Z,11.73
2019-05-12T14:39:17.662Z,13.38
2019-05-12T14:41:53.179Z,13.83
2019-05-12T14:44:23.871Z,16.87
2019-05-12T14:46:57.174Z,13.03
2019-05-12T14:49:30.502Z,11.93
2019-05-12T14:52:03.317Z,12.20
2019-05-12T14:54:34.650Z,13.98
2019-05-12T14:57:05.796Z,12.60
2019-05-12T14:59:41.119Z,11.60
2019-05-12T15:02:10.016Z,12.03
2019-05-12T15:04:43.414Z,13.65
2019-05-12T15:07:15.281Z,15.48
2019-05-12T15:09:46.599Z,23.12
2019-05-12T15:12:17.760Z,57.65
2019-05-12T15:14:48.920Z,62.10
2019-05-12T15:17:24.568Z,54.50
2019-05-12T15:19:54.279Z,30.95
2019-05-12T15:22:25.429Z,29.23
2019-05-12T15:24:58.800Z,38.05
2019-05-12T15:27:42.350Z,25.55
2019-05-12T15:30:04.175Z,38.40
2019-05-12T15:32:35.111Z,23.35
2019-05-12T15:35:07.576Z,28.92
2019-05-12T15:37:39.079Z,28.67
2019-05-12T15:40:10.237Z,31.33
2019-05-12T15:42:41.380Z,30.20
2019-05-12T15:45:16.206Z,37.25
2019-05-12T15:47:45.454Z,47.10
2019-05-12T15:50:17.593Z,41.77
2019-05-12T15:52:48.814Z,26.77
2019-05-12T15:55:25.592Z,25.02
2019-05-12T15:57:52.797Z,19.23
2019-05-12T16:00:24.504Z,16.87
2019-05-12T16:03:15.409Z,20.02
2019-05-12T16:05:46.562Z,16.65
2019-05-12T16:08:17.696Z,14.90
2019-05-12T16:10:48.826Z,15.20
2019-05-12T16:13:20.002Z,18.48
2019-05-12T16:15:57.621Z,19.02
2019-05-12T16:18:26.632Z,15.08
2019-05-12T16:20:58.877Z,18.92
2019-05-12T16:23:30.305Z,20.40
2019-05-12T16:26:07.073Z,15.75
2019-05-12T16:28:34.296Z,17.07
2019-05-12T16:31:08.685Z,22.05
2019-05-12T16:33:38.603Z,14.68
2019-05-12T16:36:11.377Z,11.63
2019-05-12T16:38:44.485Z,12.93
2019-05-12T16:41:19.932Z,15.03
2019-05-12T16:43:49.898Z,15.50
2019-05-12T16:46:23.382Z,15.23
2019-05-12T16:48:56.915Z,17.12
2019-05-12T16:51:26.658Z,13.78
2019-05-12T16:53:57.862Z,15.28
2019-05-12T16:56:29.869Z,17.32
2019-05-12T16:59:08.929Z,14.18
2019-05-12T17:01:35.070Z,12.05
2019-05-12T17:04:06.302Z,13.98
2019-05-12T17:06:38.723Z,15.35
2019-05-12T17:09:10.089Z,15.25
2019-05-12T17:11:47.233Z,10.28
2019-05-12T17:14:14.114Z,10.10
2019-05-12T17:16:46.709Z,11.60
2019-05-12T17:19:19.098Z,12.58
2019-05-12T17:21:57.678Z,11.88
2019-05-12T17:24:23.934Z,12.47
2019-05-12T17:26:55.497Z,11.15
2019-05-12T17:29:26.659Z,12.82
2019-05-12T17:31:57.781Z,11.28
2019-05-12T17:34:29.027Z,12.03
2019-05-12T17:37:00.570Z,11.38
2019-05-12T17:39:35.546Z,9.63
2019-05-12T17:42:04.817Z,9.50
2019-05-12T17:44:36.784Z,10.63
2019-05-12T17:47:14.737Z,8.18
2019-05-12T17:49:43.580Z,8.65
2019-05-12T17:52:18.423Z,10.38
2019-05-12T17:54:47.199Z,8.55
2019-05-12T17:57:20.050Z,9.08
2019-05-12T17:59:51.365Z,8.90
2019-05-12T18:02:23.627Z,9.43
2019-05-12T18:04:54.951Z,7.83
2019-05-12T18:07:26.055Z,9.23
2019-05-12T18:10:00.606Z,11.73
2019-05-12T18:12:36.668Z,10.25
2019-05-12T18:15:04.592Z,18.20
2019-05-12T18:17:39.005Z,10.85
2019-05-12T18:20:09.541Z,12.68
2019-05-12T18:22:44.893Z,9.03
2019-05-12T18:25:14.602Z,9.78
2019-05-12T18:27:50.649Z,10.70
2019-05-12T18:30:19.390Z,8.78
2019-05-12T18:32:54.918Z,10.85
2019-05-12T18:35:23.683Z,8.25
2019-05-12T18:37:54.869Z,8.45
2019-05-12T18:40:28.225Z,8.23
2019-05-12T18:42:59.543Z,6.78
2019-05-12T18:45:30.726Z,9.15
2019-05-12T18:48:10.621Z,8.48
2019-05-12T18:50:34.742Z,8.20
2019-05-12T18:53:05.952Z,8.30
2019-05-12T18:55:40.327Z,6.50
2019-05-12T18:58:09.906Z,6.47
2019-05-12T19:00:54.050Z,22.98
2019-05-12T19:03:25.695Z,46.53
2019-05-12T19:05:58.301Z,19.00
2019-05-12T19:08:29.577Z,15.05
2019-05-12T19:11:14.931Z,9.08
2019-05-12T19:13:33.923Z,8.28
2019-05-12T19:16:07.314Z,7.37
2019-05-12T19:18:55.475Z,6.80
2019-05-12T19:21:24.086Z,7.78
2019-05-12T19:23:55.302Z,10.03
2019-05-12T19:26:26.433Z,8.23
2019-05-12T19:28:58.144Z,9.43
2019-05-12T19:31:29.407Z,8.30
2019-05-12T19:34:15.647Z,8.13
2019-05-12T19:36:38.096Z,7.00
2019-05-12T19:39:07.804Z,5.28
2019-05-12T19:41:39.852Z,5.67
2019-05-12T19:44:13.272Z,4.87
2019-05-12T19:46:45.872Z,7.33
2019-05-12T19:49:20.114Z,6.35
2019-05-12T19:51:50.653Z,5.40
2019-05-12T19:54:25.511Z,5.95
2019-05-12T19:56:54.657Z,5.80
2019-05-12T19:59:25.862Z,5.70
